createdAt,value
2018-08-17T00:02:13.352Z,20.77
2018-08-17T00:04:42.118Z,18.30
2018-08-17T00:07:10.839Z,21.10
2018-08-17T00:09:39.620Z,19.20
2018-08-17T00:12:08.068Z,19.50
2018-08-17T00:14:36.484Z,18.27
2018-08-17T00:17:04.966Z,19.73
2018-08-17T00:19:33.384Z,20.20
2018-08-17T00:22:01.893Z,16.47
2018-08-17T00:24:30.291Z,15.97
2018-08-17T00:26:58.763Z,17.87
2018-08-17T00:29:27.238Z,19.03
2018-08-17T00:31:55.690Z,17.30
2018-08-17T00:34:24.121Z,19.17
2018-08-17T00:36:52.568Z,18.27
2018-08-17T00:39:21.159Z,20.40
2018-08-17T00:41:49.575Z,17.90
2018-08-17T00:44:18.044Z,16.10
2018-08-17T00:46:46.527Z,17.17
2018-08-17T00:49:14.945Z,16.57
2018-08-17T00:51:43.350Z,19.30
2018-08-17T00:54:12.699Z,17.50
2018-08-17T00:56:41.123Z,15.43
2018-08-17T00:59:09.539Z,15.57
2018-08-17T01:01:38.001Z,16.83
2018-08-17T01:04:06.488Z,14.77
2018-08-17T01:06:35.050Z,14.67
2018-08-17T01:09:04.858Z,16.50
2018-08-17T01:11:33.311Z,18.40
2018-08-17T01:14:01.727Z,16.27
2018-08-17T01:16:30.199Z,16.00
2018-08-17T01:18:58.623Z,17.10
2018-08-17T01:21:27.048Z,16.80
2018-08-17T01:23:55.506Z,17.43
2018-08-17T01:26:23.920Z,19.23
2018-08-17T01:28:52.321Z,17.07
2018-08-17T01:31:20.878Z,17.77
2018-08-17T01:33:49.360Z,23.50
2018-08-17T01:36:17.754Z,17.07
2018-08-17T01:38:46.223Z,18.10
2018-08-17T01:41:14.632Z,16.80
2018-08-17T01:43:43.123Z,17.30
2018-08-17T01:46:11.715Z,17.43
2018-08-17T01:48:40.159Z,18.70
2018-08-17T01:51:08.587Z,19.63
2018-08-17T01:53:37.068Z,17.80
2018-08-17T01:56:05.700Z,18.20
2018-08-17T01:58:34.190Z,19.03
2018-08-17T02:01:02.604Z,19.10
2018-08-17T02:03:31.116Z,19.73
2018-08-17T02:05:59.542Z,18.90
2018-08-17T02:08:27.950Z,21.27
2018-08-17T02:10:56.496Z,18.40
2018-08-17T02:13:25.757Z,19.70
2018-08-17T02:15:54.356Z,19.40
2018-08-17T02:18:22.772Z,21.23
2018-08-17T02:20:51.260Z,19.60
2018-08-17T02:23:19.660Z,20.77
2018-08-17T02:25:48.116Z,17.53
2018-08-17T02:28:16.577Z,18.67
2018-08-17T02:30:44.992Z,22.10
2018-08-17T02:33:13.404Z,18.23
2018-08-17T02:35:41.812Z,20.73
2018-08-17T02:38:10.280Z,19.67
2018-08-17T02:40:38.703Z,21.93
2018-08-17T02:43:07.105Z,23.73
2018-08-17T02:45:35.557Z,20.57
2018-08-17T02:48:04.017Z,22.90
2018-08-17T02:50:32.419Z,22.63
2018-08-17T02:53:00.907Z,23.80
2018-08-17T02:55:29.328Z,27.07
2018-08-17T02:57:57.721Z,25.73
2018-08-17T03:00:26.149Z,25.20
2018-08-17T03:02:54.568Z,26.90
2018-08-17T03:05:23.269Z,31.87
2018-08-17T03:07:51.681Z,34.30
2018-08-17T03:10:20.092Z,35.60
2018-08-17T03:12:48.470Z,35.70
2018-08-17T03:15:17.052Z,37.83
2018-08-17T03:17:45.534Z,36.93
2018-08-17T03:20:14.005Z,34.63
2018-08-17T03:22:42.396Z,36.30
2018-08-17T03:25:10.875Z,38.40
2018-08-17T03:27:39.318Z,41.70
2018-08-17T03:30:07.734Z,33.67
2018-08-17T03:32:36.152Z,33.63
2018-08-17T03:35:05.355Z,35.93
2018-08-17T03:37:33.926Z,33.83
2018-08-17T03:40:02.300Z,33.30
2018-08-17T03:42:31.052Z,34.60
2018-08-17T03:44:59.496Z,36.57
2018-08-17T03:47:27.982Z,33.63
2018-08-17T03:49:56.374Z,34.60
2018-08-17T03:52:24.800Z,32.53
2018-08-17T03:54:53.211Z,30.70
2018-08-17T03:57:21.627Z,29.40
2018-08-17T03:59:50.052Z,29.53
2018-08-17T04:02:18.452Z,29.53
2018-08-17T04:04:46.885Z,31.00
2018-08-17T04:07:15.276Z,27.77
2018-08-17T04:09:43.708Z,29.70
2018-08-17T04:12:12.117Z,30.20
2018-08-17T04:14:40.500Z,29.23
2018-08-17T04:17:08.961Z,28.97
2018-08-17T04:19:37.345Z,27.90
2018-08-17T04:22:06.880Z,31.40
2018-08-17T04:24:35.292Z,29.00
2018-08-17T04:27:03.821Z,25.30
2018-08-17T04:29:32.220Z,28.73
2018-08-17T04:32:00.592Z,27.13
2018-08-17T04:34:29.084Z,22.43
2018-08-17T04:36:57.502Z,22.00
2018-08-17T04:39:25.938Z,21.43
2018-08-17T04:41:54.352Z,20.03
2018-08-17T04:44:22.798Z,22.73
2018-08-17T04:46:51.207Z,19.40
2018-08-17T04:49:19.754Z,18.37
2018-08-17T04:51:48.279Z,22.30
2018-08-17T04:54:16.739Z,17.07
2018-08-17T04:56:45.287Z,18.60
2018-08-17T04:59:13.758Z,22.00
2018-08-17T05:01:42.437Z,18.90
2018-08-17T05:04:10.888Z,16.13
2018-08-17T05:06:39.323Z,20.20
2018-08-17T05:09:07.841Z,19.13
2018-08-17T05:11:36.207Z,16.63
2018-08-17T05:14:04.611Z,18.00
2018-08-17T05:16:33.001Z,16.37
2018-08-17T05:19:01.399Z,16.20
2018-08-17T05:21:29.824Z,16.03
2018-08-17T05:23:58.207Z,15.20
2018-08-17T05:26:26.668Z,12.70
2018-08-17T05:28:55.086Z,13.80
2018-08-17T05:31:23.559Z,12.93
2018-08-17T05:33:52.036Z,14.40
2018-08-17T05:36:20.572Z,14.83
2018-08-17T05:38:48.999Z,16.33
2018-08-17T05:41:17.387Z,12.10
2018-08-17T05:43:45.820Z,15.57
2018-08-17T05:46:14.227Z,12.23
2018-08-17T05:48:42.693Z,14.97
2018-08-17T05:51:11.083Z,14.13
2018-08-17T05:53:40.162Z,13.90
2018-08-17T05:56:08.760Z,9.27
2018-08-17T05:58:37.176Z,9.90
2018-08-17T06:01:06.128Z,10.40
2018-08-17T06:03:34.590Z,11.47
2018-08-17T06:06:02.983Z,7.47
2018-08-17T06:08:31.536Z,13.07
2018-08-17T06:11:00.022Z,9.27
2018-08-17T06:13:28.344Z,11.67
2018-08-17T06:15:56.746Z,6.70
2018-08-17T06:18:25.170Z,10.37
2018-08-17T06:20:53.607Z,7.40
2018-08-17T06:23:22.004Z,6.20
2018-08-17T06:25:50.444Z,9.67
2018-08-17T06:28:18.862Z,8.03
2018-08-17T06:30:47.365Z,9.40
2018-08-17T06:33:15.797Z,11.43
2018-08-17T06:35:44.207Z,10.27
2018-08-17T06:38:12.770Z,7.50
2018-08-17T06:40:41.428Z,8.03
2018-08-17T06:43:09.879Z,8.33
2018-08-17T06:45:38.355Z,11.37
2018-08-17T06:48:07.063Z,6.67
2018-08-17T06:50:35.548Z,7.80
2018-08-17T06:53:03.962Z,7.90
2018-08-17T06:55:32.447Z,10.07
2018-08-17T06:58:00.899Z,9.90
2018-08-17T07:00:29.300Z,8.03
2018-08-17T07:02:57.878Z,7.70
2018-08-17T07:05:26.369Z,5.17
2018-08-17T07:07:54.891Z,6.50
2018-08-17T07:10:24.319Z,7.97
2018-08-17T07:12:52.786Z,6.20
2018-08-17T07:15:21.184Z,5.90
2018-08-17T07:17:49.616Z,7.13
2018-08-17T07:20:18.016Z,5.67
2018-08-17T07:22:46.418Z,8.60
2018-08-17T07:25:14.871Z,6.53
2018-08-17T07:27:43.347Z,7.07
2018-08-17T07:30:11.821Z,6.17
2018-08-17T07:32:40.448Z,8.30
2018-08-17T07:35:10.120Z,7.80
2018-08-17T07:37:38.800Z,5.67
2018-08-17T07:40:07.703Z,8.33
2018-08-17T07:42:36.188Z,6.90
2018-08-17T07:45:05.204Z,8.47
2018-08-17T07:47:33.720Z,8.20
2018-08-17T07:50:02.116Z,5.70
2018-08-17T07:52:30.520Z,8.60
2018-08-17T07:54:58.943Z,6.53
2018-08-17T07:57:27.389Z,12.77
2018-08-17T07:59:55.783Z,5.53
2018-08-17T08:02:24.198Z,6.90
2018-08-17T08:04:52.799Z,7.83
2018-08-17T08:07:21.299Z,10.57
2018-08-17T08:09:49.740Z,8.37
2018-08-17T08:12:18.719Z,13.97
2018-08-17T08:14:47.291Z,6.70
2018-08-17T08:17:15.712Z,7.20
2018-08-17T08:19:45.915Z,7.20
2018-08-17T08:22:14.339Z,5.30
2018-08-17T08:24:42.829Z,9.20
2018-08-17T08:27:11.231Z,7.80
2018-08-17T08:29:39.642Z,6.90
2018-08-17T08:32:08.058Z,6.03
2018-08-17T08:34:36.483Z,7.13
2018-08-17T08:37:05.594Z,8.43
2018-08-17T08:39:34.078Z,6.50
2018-08-17T08:42:02.492Z,7.37
2018-08-17T08:44:31.047Z,5.87
2018-08-17T08:46:59.462Z,5.50
2018-08-17T08:49:28.002Z,5.67
2018-08-17T08:51:56.424Z,9.20
2018-08-17T08:54:24.920Z,5.60
2018-08-17T08:56:53.360Z,7.77
2018-08-17T08:59:21.798Z,6.13
2018-08-17T09:01:50.483Z,5.10
2018-08-17T09:04:19.024Z,6.07
2018-08-17T09:06:47.444Z,7.30
2018-08-17T09:09:16.027Z,6.17
2018-08-17T09:11:44.524Z,5.50
2018-08-17T09:14:12.964Z,5.17
2018-08-17T09:16:41.510Z,6.80
2018-08-17T09:19:09.918Z,5.00
2018-08-17T09:21:38.856Z,7.60
2018-08-17T09:24:07.970Z,6.63
2018-08-17T09:26:36.388Z,9.27
2018-08-17T09:29:04.941Z,7.00
2018-08-17T09:31:33.368Z,5.43
2018-08-17T09:34:01.776Z,4.10
2018-08-17T09:36:30.202Z,5.00
2018-08-17T09:38:58.580Z,3.87
2018-08-17T09:41:27.059Z,3.33
2018-08-17T09:43:55.480Z,3.00
2018-08-17T09:46:24.114Z,4.93
2018-08-17T09:48:52.880Z,6.80
2018-08-17T09:51:21.351Z,9.73
2018-08-17T09:53:49.800Z,4.77
2018-08-17T09:56:18.294Z,8.03
2018-08-17T09:58:46.688Z,4.13
2018-08-17T10:01:20.683Z,8.90
2018-08-17T10:03:54.811Z,14.73
2018-08-17T10:06:29.119Z,11.73
2018-08-17T10:09:04.027Z,14.80
2018-08-17T10:11:32.484Z,13.87
2018-08-17T10:14:01.175Z,11.87
2018-08-17T10:16:29.840Z,12.40
2018-08-17T10:18:58.266Z,13.63
2018-08-17T10:21:27.017Z,10.97
2018-08-17T10:23:55.394Z,10.57
2018-08-17T10:26:23.839Z,10.53
2018-08-17T10:28:52.236Z,8.93
2018-08-17T10:31:20.724Z,10.53
2018-08-17T10:33:49.504Z,9.97
2018-08-17T10:36:17.923Z,11.37
2018-08-17T10:38:46.375Z,13.80
2018-08-17T10:41:14.961Z,14.80
2018-08-17T10:43:43.520Z,12.97
2018-08-17T10:46:11.964Z,12.40
2018-08-17T10:48:40.437Z,12.60
2018-08-17T10:51:08.920Z,13.50
2018-08-17T10:53:41.624Z,15.50
2018-08-17T10:56:10.116Z,15.53
2018-08-17T10:58:38.728Z,14.87
2018-08-17T11:01:07.132Z,16.37
2018-08-17T11:03:35.623Z,15.87
2018-08-17T11:06:04.361Z,16.77
2018-08-17T11:08:33.017Z,15.27
2018-08-17T11:11:01.480Z,18.73
2018-08-17T11:13:29.877Z,22.20
2018-08-17T11:15:58.265Z,23.37
2018-08-17T11:18:26.664Z,26.67
2018-08-17T11:20:55.736Z,28.50
2018-08-17T11:23:24.413Z,23.40
2018-08-17T11:25:52.825Z,22.73
2018-08-17T11:28:21.232Z,22.60
2018-08-17T11:30:49.636Z,26.17
2018-08-17T11:33:23.244Z,22.23
2018-08-17T11:35:52.145Z,21.07
2018-08-17T11:38:20.508Z,23.90
2018-08-17T11:40:48.936Z,16.03
2018-08-17T11:43:17.860Z,22.30
2018-08-17T11:45:46.599Z,23.27
2018-08-17T11:48:22.529Z,19.30
2018-08-17T11:50:51.023Z,17.63
2018-08-17T11:53:19.667Z,19.77
2018-08-17T11:55:48.115Z,23.10
2018-08-17T11:58:16.537Z,23.57
2018-08-17T12:00:45.004Z,23.30
2018-08-17T12:03:13.467Z,22.60
2018-08-17T12:05:42.103Z,28.43
2018-08-17T12:08:10.537Z,27.10
2018-08-17T12:10:38.931Z,24.40
2018-08-17T12:13:12.566Z,16.80
2018-08-17T12:15:46.315Z,15.80
2018-08-17T12:18:14.707Z,12.60
2018-08-17T12:20:43.145Z,13.97
2018-08-17T12:23:11.539Z,14.37
2018-08-17T12:25:49.263Z,13.23
2018-08-17T12:28:17.675Z,14.40
2018-08-17T12:30:46.070Z,12.50
2018-08-17T12:33:14.487Z,12.60
2018-08-17T12:35:43.031Z,11.80
2018-08-17T12:38:16.425Z,13.00
2018-08-17T12:40:46.983Z,12.60
2018-08-17T12:43:17.641Z,11.97
2018-08-17T12:45:46.490Z,11.40
2018-08-17T12:48:15.955Z,12.10
2018-08-17T12:50:45.050Z,12.33
2018-08-17T12:53:13.867Z,14.57
2018-08-17T12:55:42.623Z,16.70
2018-08-17T12:58:11.436Z,16.00
2018-08-17T13:00:40.144Z,15.23
2018-08-17T13:03:08.920Z,13.20
2018-08-17T13:05:37.447Z,14.20
2018-08-17T13:08:06.556Z,13.00
2018-08-17T13:10:35.903Z,13.50
2018-08-17T13:13:11.211Z,12.60
2018-08-17T13:15:45.081Z,11.87
2018-08-17T13:18:18.631Z,12.00
2018-08-17T13:20:47.160Z,13.80
2018-08-17T13:23:15.589Z,13.67
2018-08-17T13:25:44.006Z,15.10
2018-08-17T13:28:12.453Z,13.50
2018-08-17T13:30:40.939Z,14.80
2018-08-17T13:33:09.546Z,16.00
2018-08-17T13:35:37.964Z,11.17
2018-08-17T13:38:06.804Z,13.13
2018-08-17T13:40:35.258Z,11.80
2018-08-17T13:43:03.919Z,14.33
2018-08-17T13:45:32.371Z,12.03
2018-08-17T13:48:00.872Z,10.50
2018-08-17T13:50:29.279Z,11.03
2018-08-17T13:52:57.715Z,12.87
2018-08-17T13:55:26.287Z,11.57
2018-08-17T13:57:54.587Z,10.57
2018-08-17T14:00:23.018Z,12.97
2018-08-17T14:02:51.623Z,10.80
2018-08-17T14:05:20.985Z,12.90
2018-08-17T14:07:49.457Z,13.50
2018-08-17T14:10:17.846Z,11.70
2018-08-17T14:12:46.416Z,10.93
2018-08-17T14:15:14.963Z,9.60
2018-08-17T14:17:43.467Z,9.23
2018-08-17T14:20:14.985Z,7.40
2018-08-17T14:22:43.510Z,11.20
2018-08-17T14:25:12.369Z,9.27
2018-08-17T14:27:40.949Z,9.20
2018-08-17T14:30:15.085Z,10.13
2018-08-17T14:32:43.867Z,9.50
2018-08-17T14:35:12.630Z,9.90
2018-08-17T14:37:40.955Z,9.30
2018-08-17T14:40:10.254Z,10.10
2018-08-17T14:42:39.007Z,8.73
2018-08-17T14:45:08.454Z,8.83
2018-08-17T14:47:37.436Z,10.70
2018-08-17T14:50:08.320Z,6.50
2018-08-17T14:52:36.919Z,8.03
2018-08-17T14:55:05.715Z,7.33
2018-08-17T14:57:34.250Z,8.00
2018-08-17T15:00:02.667Z,8.90
2018-08-17T15:02:31.084Z,8.30
2018-08-17T15:04:59.573Z,8.70
2018-08-17T15:07:28.019Z,8.07
2018-08-17T15:09:56.429Z,8.50
2018-08-17T15:12:24.828Z,7.70
2018-08-17T15:14:53.322Z,9.67
2018-08-17T15:17:22.181Z,7.87
2018-08-17T15:19:50.636Z,8.97
2018-08-17T15:22:19.084Z,6.40
2018-08-17T15:24:47.684Z,7.30
2018-08-17T15:27:16.612Z,6.73
2018-08-17T15:29:45.045Z,8.63
2018-08-17T15:32:13.536Z,11.50
2018-08-17T15:34:41.974Z,9.73
2018-08-17T15:37:10.409Z,10.53
2018-08-17T15:39:38.849Z,11.70
2018-08-17T15:42:07.633Z,8.63
2018-08-17T15:44:36.059Z,9.73
2018-08-17T15:47:04.740Z,9.77
2018-08-17T15:49:33.643Z,8.23
2018-08-17T15:52:03.281Z,7.67
2018-08-17T15:54:31.723Z,8.70
2018-08-17T15:57:00.383Z,9.50
2018-08-17T15:59:28.927Z,11.57
2018-08-17T16:01:57.360Z,7.60
2018-08-17T16:04:25.804Z,13.80
2018-08-17T16:06:54.300Z,7.50
2018-08-17T16:09:23.515Z,6.43
2018-08-17T16:11:51.943Z,10.70
2018-08-17T16:14:20.389Z,10.33
2018-08-17T16:16:48.811Z,11.37
2018-08-17T16:19:17.202Z,8.73
2018-08-17T16:21:45.671Z,10.43
2018-08-17T16:24:14.071Z,9.60
2018-08-17T16:26:42.568Z,7.13
2018-08-17T16:29:11.059Z,6.73
2018-08-17T16:31:41.672Z,9.27
2018-08-17T16:34:10.669Z,7.90
2018-08-17T16:36:41.330Z,7.80
2018-08-17T16:39:12.866Z,7.73
2018-08-17T16:41:41.388Z,7.83
2018-08-17T16:44:10.403Z,7.53
2018-08-17T16:46:40.080Z,12.30
2018-08-17T16:49:08.923Z,9.03
2018-08-17T16:51:37.689Z,7.70
2018-08-17T16:54:06.205Z,9.03
2018-08-17T16:56:34.847Z,8.70
2018-08-17T16:59:03.406Z,9.37
2018-08-17T17:01:32.243Z,11.83
2018-08-17T17:04:00.842Z,8.30
2018-08-17T17:06:29.311Z,8.80
2018-08-17T17:09:00.847Z,7.40
2018-08-17T17:11:29.305Z,6.13
2018-08-17T17:13:57.704Z,8.60
2018-08-17T17:16:35.603Z,10.53
2018-08-17T17:19:04.079Z,8.50
2018-08-17T17:21:32.903Z,11.73
2018-08-17T17:24:01.339Z,9.80
2018-08-17T17:26:29.794Z,10.53
2018-08-17T17:28:58.305Z,8.17
2018-08-17T17:31:26.718Z,8.00
2018-08-17T17:33:55.168Z,8.50
2018-08-17T17:36:23.699Z,11.50
2018-08-17T17:38:52.083Z,20.23
2018-08-17T17:41:20.763Z,20.40
2018-08-17T17:43:49.171Z,17.20
2018-08-17T17:46:17.927Z,33.07
2018-08-17T17:48:46.363Z,111.00
2018-08-17T17:51:14.775Z,190.97
2018-08-17T17:53:43.663Z,27.50
2018-08-17T17:56:12.213Z,72.90
2018-08-17T17:58:40.776Z,39.47
2018-08-17T18:01:10.226Z,27.77
2018-08-17T18:03:42.806Z,37.20
2018-08-17T18:06:11.210Z,26.97
2018-08-17T18:08:39.640Z,46.40
2018-08-17T18:11:08.107Z,43.40
2018-08-17T18:13:36.477Z,26.03
2018-08-17T18:16:04.949Z,30.47
2018-08-17T18:18:34.295Z,25.67
2018-08-17T18:21:02.795Z,30.83
2018-08-17T18:23:31.239Z,21.67
2018-08-17T18:25:59.661Z,25.00
2018-08-17T18:28:28.361Z,24.33
2018-08-17T18:30:56.800Z,12.07
2018-08-17T18:33:25.184Z,10.00
2018-08-17T18:35:53.756Z,9.63
2018-08-17T18:38:22.221Z,7.33
2018-08-17T18:40:50.667Z,26.30
2018-08-17T18:43:19.050Z,18.33
2018-08-17T18:45:47.705Z,16.50
2018-08-17T18:48:16.112Z,12.83
2018-08-17T18:50:44.540Z,15.13
2018-08-17T18:53:12.971Z,12.87
2018-08-17T18:55:41.406Z,12.93
2018-08-17T18:58:09.878Z,12.80
2018-08-17T19:00:38.418Z,11.80
2018-08-17T19:03:07.104Z,7.43
2018-08-17T19:05:35.643Z,9.50
2018-08-17T19:08:04.110Z,13.00
2018-08-17T19:10:32.563Z,9.17
2018-08-17T19:13:00.952Z,9.57
2018-08-17T19:15:30.728Z,13.30
2018-08-17T19:17:59.144Z,9.13
2018-08-17T19:20:27.601Z,13.33
2018-08-17T19:22:55.988Z,9.03
2018-08-17T19:25:24.920Z,9.10
2018-08-17T19:27:53.638Z,12.90
2018-08-17T19:30:27.489Z,12.33
2018-08-17T19:32:57.723Z,9.60
2018-08-17T19:35:26.759Z,9.70
2018-08-17T19:37:55.240Z,6.80
2018-08-17T19:40:24.212Z,8.90
2018-08-17T19:42:52.654Z,9.20
2018-08-17T19:45:21.667Z,18.00
2018-08-17T19:47:50.549Z,11.37
2018-08-17T19:50:19.111Z,8.27
2018-08-17T19:52:47.627Z,11.67
2018-08-17T19:55:17.313Z,11.87
2018-08-17T19:57:45.807Z,13.90
2018-08-17T20:00:14.715Z,13.77
2018-08-17T20:02:43.115Z,13.73
2018-08-17T20:05:11.620Z,10.10
2018-08-17T20:07:40.240Z,10.27
2018-08-17T20:10:10.121Z,10.53
2018-08-17T20:12:39.888Z,13.20
2018-08-17T20:15:08.913Z,12.83
2018-08-17T20:17:37.947Z,8.50
2018-08-17T20:20:09.468Z,8.90
2018-08-17T20:22:37.905Z,8.80
2018-08-17T20:25:11.779Z,11.97
2018-08-17T20:27:40.349Z,22.30
2018-08-17T20:30:14.193Z,120.60
2018-08-17T20:32:42.742Z,90.23
2018-08-17T20:35:11.400Z,69.77
2018-08-17T20:37:44.112Z,62.17
2018-08-17T20:40:12.657Z,76.00
2018-08-17T20:42:41.128Z,29.37
2018-08-17T20:45:09.944Z,22.50
2018-08-17T20:47:39.571Z,31.87
2018-08-17T20:50:18.329Z,37.63
2018-08-17T20:53:02.079Z,35.47
2018-08-17T20:55:30.532Z,43.63
2018-08-17T20:58:00.207Z,44.43
2018-08-17T21:00:29.906Z,26.17
2018-08-17T21:02:59.321Z,32.13
2018-08-17T21:05:28.265Z,20.50
2018-08-17T21:07:56.775Z,48.50
2018-08-17T21:10:25.537Z,37.40
2018-08-17T21:12:54.460Z,24.50
2018-08-17T21:15:23.676Z,23.63
2018-08-17T21:17:52.201Z,38.70
2018-08-17T21:20:20.638Z,14.60
2018-08-17T21:22:49.172Z,19.80
2018-08-17T21:25:17.680Z,43.97
2018-08-17T21:27:46.109Z,34.30
2018-08-17T21:30:15.395Z,44.97
2018-08-17T21:32:43.823Z,40.63
2018-08-17T21:35:12.591Z,19.60
2018-08-17T21:37:41.281Z,23.90
2018-08-17T21:40:16.293Z,24.87
2018-08-17T21:42:44.731Z,15.87
2018-08-17T21:45:13.223Z,15.50
2018-08-17T21:47:41.675Z,19.00
2018-08-17T21:50:13.445Z,20.70
2018-08-17T21:52:42.611Z,28.10
2018-08-17T21:55:11.130Z,45.00
2018-08-17T21:57:39.551Z,41.33
2018-08-17T22:00:12.567Z,20.53
2018-08-17T22:02:41.043Z,123.90
2018-08-17T22:05:13.377Z,43.30
2018-08-17T22:07:41.960Z,58.57
2018-08-17T22:10:10.429Z,20.87
2018-08-17T22:12:38.900Z,15.40
2018-08-17T22:15:07.520Z,15.53
2018-08-17T22:17:38.893Z,22.70
2018-08-17T22:20:08.835Z,23.70
2018-08-17T22:22:37.351Z,14.03
2018-08-17T22:25:11.450Z,40.17
2018-08-17T22:27:40.287Z,42.97
2018-08-17T22:30:21.621Z,34.30
2018-08-17T22:32:50.372Z,24.10
2018-08-17T22:35:19.119Z,19.33
2018-08-17T22:37:47.514Z,22.40
2018-08-17T22:40:15.989Z,19.43
2018-08-17T22:42:47.203Z,23.30
2018-08-17T22:45:16.463Z,16.60
2018-08-17T22:47:45.231Z,17.93
2018-08-17T22:50:13.650Z,17.33
2018-08-17T22:52:42.106Z,27.67
2018-08-17T22:55:10.498Z,22.60
2018-08-17T22:57:38.974Z,33.17
2018-08-17T23:00:16.956Z,17.53
2018-08-17T23:02:46.345Z,26.13
2018-08-17T23:05:17.119Z,47.10
2018-08-17T23:07:45.672Z,18.47
2018-08-17T23:10:17.312Z,14.93
2018-08-17T23:12:46.975Z,15.00
2018-08-17T23:15:15.628Z,15.33
2018-08-17T23:17:48.908Z,12.17
2018-08-17T23:20:21.599Z,14.27
2018-08-17T23:22:51.219Z,15.33
2018-08-17T23:25:19.756Z,13.30
2018-08-17T23:27:48.884Z,12.07
2018-08-17T23:30:17.302Z,12.27
2018-08-17T23:32:46.208Z,10.00
2018-08-17T23:35:14.671Z,9.97
2018-08-17T23:37:43.296Z,10.67
2018-08-17T23:40:11.771Z,11.60
2018-08-17T23:42:40.324Z,8.90
2018-08-17T23:45:10.816Z,15.20
2018-08-17T23:47:39.382Z,10.97
2018-08-17T23:50:09.299Z,10.03
2018-08-17T23:52:37.884Z,11.00
2018-08-17T23:55:07.288Z,11.17
2018-08-17T23:57:35.962Z,13.80
